Huvudsida
METAR-TAF:

METAR-TAF

Flygplatser :

Brønnøysunds flygplats. Brønnøy

Brønnøysund, Norge

latitud: 65-28N, longitud: 012-13E, höjd: 0 m

Aktuellt väderrapport

Denna rapport gjordes för 38 minuter sedan, klockan 16:50 UTC
Vind 5 kt från ost/nordost, varierande mellan nord och ost/sydost
Temperatur -2°C
Fuktighet 54%
Tryck 988 hPa
Sikt 10 km eller mer
Spridda moln på en höjd av 5000 ft

METAR: ENBN 161650Z 07005KT 010V120 9999 SCT050 M02/M10 Q0988

Tid: 18:28 (17:28 UTC)

Väderprognos

Denna rapport gjordes för 3 timmar och 28 minuter sedan, klockan 14:00 UTC
Prognos gäller från 16 kl. 15 UTC till 16 kl. 20 UTC
Vind 8 kt från ost/nordost
Sikt 10 km eller mer
Spridda moln på en höjd av 4000 ft

TAF: ENBN 161400Z 1615/1620 06008KT 9999 SCT040

Aktuella väderrapporter och prognoser från 4000 flygplatser (METAR- och TAF-rapporter).

De tillgängliga stationerna syns som gula och röda prickar på kartan.

För musen över prickarna för att se namnen på stationerna.

Klicka sedan för att få väderrapporter och prognoser.

För att ändra kartan: Klicka på de gröna knapparna med ett svart kors på för att zooma in; den gröna knappen med ett streck på för att zooma ut; eller på de gröna pilarna för angränsande kartor.


METAR-TAF: